Time;durP1;ratioP1;P1;durP2;ratioP2;P2;SDS_P1;SDS_P2;PMS_P1;PMS_P2;Temp;Humidity;BMP_temperature;BMP_pressure;BME280_temperature;BME280_humidity;BME280_pressure;Samples;Min_cycle;Max_cycle;Signal;HPM_P1;HPM_P2
2023/02/28 00:01:51;;;;;;;14.07;7.00;;;;;;;-2.75;100.00;99752.13;4158873;28;20045;-72
2023/02/28 00:03:51;;;;;;;8.68;5.70;;;;;;;-2.75;100.00;99747.53;4157749;28;20096;-72
2023/02/28 00:05:52;;;;;;;11.25;6.07;;;;;;;-2.76;100.00;99748.59;4157894;28;20401;-72
2023/02/28 00:07:52;;;;;;;12.90;6.68;;;;;;;-2.74;100.00;99749.16;4158975;28;20128;-72
2023/02/28 00:09:53;;;;;;;9.55;6.38;;;;;;;-2.74;100.00;99741.03;4158619;28;20663;-72
2023/02/28 00:11:53;;;;;;;6.95;5.90;;;;;;;-2.76;100.00;99739.66;4158949;28;20055;-72
2023/02/28 00:13:54;;;;;;;8.20;5.05;;;;;;;-2.76;100.00;99736.94;4158067;28;20045;-72
2023/02/28 00:16:21;;;;;;;9.25;5.85;;;;;;;-2.75;100.00;99738.59;4158672;28;20041;-72
2023/02/28 00:18:22;;;;;;;8.13;5.45;;;;;;;-2.80;100.00;99735.84;4157663;28;20053;-72
2023/02/28 00:20:23;;;;;;;8.45;5.22;;;;;;;-2.81;100.00;99740.47;4158813;28;20113;-72
2023/02/28 00:22:23;;;;;;;6.43;4.68;;;;;;;-2.80;100.00;99741.28;4158504;28;20057;-72
2023/02/28 00:24:23;;;;;;;9.55;4.95;;;;;;;-2.79;100.00;99743.72;4157942;28;20128;-72
2023/02/28 00:26:24;;;;;;;9.75;5.65;;;;;;;-2.82;100.00;99733.38;4158687;28;20065;-72
2023/02/28 00:28:24;;;;;;;8.18;5.38;;;;;;;-2.83;100.00;99739.88;4158847;28;20057;-72
2023/02/28 00:30:25;;;;;;;8.63;5.60;;;;;;;-2.87;100.00;99736.06;4158676;28;20033;-72
2023/02/28 00:32:25;;;;;;;8.15;5.32;;;;;;;-2.87;100.00;99745.00;4157909;28;20118;-72
2023/02/28 00:34:25;;;;;;;7.32;5.40;;;;;;;-2.88;100.00;99739.84;4158623;28;20043;-73
2023/02/28 00:36:26;;;;;;;9.20;5.13;;;;;;;-2.90;100.00;99736.56;4158758;28;20116;-72
2023/02/28 00:38:26;;;;;;;8.70;5.55;;;;;;;-2.91;100.00;99735.75;4158555;28;20105;-73
2023/02/28 00:40:26;;;;;;;6.05;4.60;;;;;;;-2.88;100.00;99735.25;4158499;28;20568;-72
2023/02/28 00:42:27;;;;;;;9.07;5.32;;;;;;;-2.88;100.00;99735.25;4157896;28;20049;-72
2023/02/28 00:44:28;;;;;;;6.97;5.25;;;;;;;-2.87;100.00;99738.78;4157430;28;20045;-72
2023/02/28 00:46:28;;;;;;;7.18;5.30;;;;;;;-2.86;100.00;99738.50;4158171;28;20037;-72
2023/02/28 00:48:29;;;;;;;8.55;4.95;;;;;;;-2.86;100.00;99735.00;4158188;28;20309;-72
2023/02/28 00:50:29;;;;;;;7.07;4.65;;;;;;;-2.88;100.00;99735.25;4158382;28;20045;-72
2023/02/28 00:52:30;;;;;;;7.90;5.25;;;;;;;-2.86;100.00;99735.81;4157372;28;20042;-72
2023/02/28 00:54:30;;;;;;;7.68;5.03;;;;;;;-2.84;100.00;99732.81;4157822;28;20119;-72
2023/02/28 00:56:31;;;;;;;6.88;5.15;;;;;;;-2.84;100.00;99740.97;4158429;28;20363;-72
2023/02/28 00:58:31;;;;;;;8.02;5.03;;;;;;;-2.87;100.00;99736.06;4158158;28;20106;-72
2023/02/28 01:00:31;;;;;;;7.78;4.93;;;;;;;-2.88;100.00;99729.84;4157901;28;20052;-72
2023/02/28 01:02:32;;;;;;;6.85;4.38;;;;;;;-2.88;100.00;99729.03;4157122;28;20064;-72
2023/02/28 01:04:32;;;;;;;7.82;4.93;;;;;;;-2.86;100.00;99732.28;4157943;28;20124;-72
2023/02/28 01:06:32;;;;;;;7.50;4.80;;;;;;;-2.88;100.00;99732.53;4157511;28;20065;-72
2023/02/28 01:08:33;;;;;;;9.50;5.30;;;;;;;-2.84;100.00;99728.22;4158349;28;20037;-72
2023/02/28 01:10:33;;;;;;;7.50;4.78;;;;;;;-2.83;100.00;99732.56;4158126;28;20057;-72
2023/02/28 01:12:34;;;;;;;7.25;4.63;;;;;;;-2.83;100.00;99729.03;4156931;28;20506;-72
2023/02/28 01:14:35;;;;;;;7.88;4.78;;;;;;;-2.83;100.00;99734.47;4158064;28;20494;-72
2023/02/28 01:16:35;;;;;;;7.95;4.93;;;;;;;-2.84;100.00;99730.94;4157984;28;20116;-72
2023/02/28 01:18:36;;;;;;;7.18;5.05;;;;;;;-2.82;100.00;99734.19;4157640;28;20180;-72
2023/02/28 01:20:38;;;;;;;8.48;5.10;;;;;;;-2.83;100.00;99734.47;4157937;28;20037;-72
2023/02/28 01:22:38;;;;;;;6.90;4.82;;;;;;;-2.80;100.00;99730.44;4157473;28;20052;-72
2023/02/28 01:24:38;;;;;;;6.82;4.63;;;;;;;-2.80;100.00;99730.44;4157622;28;20433;-72
2023/02/28 01:26:40;;;;;;;7.72;5.03;;;;;;;-2.79;100.00;99732.88;4157587;28;20081;-72
2023/02/28 01:28:40;;;;;;;8.35;5.13;;;;;;;-2.77;100.00;99732.63;4157752;28;20040;-72
2023/02/28 01:30:41;;;;;;;7.65;4.93;;;;;;;-2.77;100.00;99729.91;4157835;28;20042;-72
2023/02/28 01:32:41;;;;;;;6.53;4.43;;;;;;;-2.79;100.00;99732.88;4156568;28;20106;-72
2023/02/28 01:34:41;;;;;;;7.47;4.57;;;;;;;-2.82;100.00;99734.19;4157977;28;20051;-72
2023/02/28 01:36:42;;;;;;;8.05;5.05;;;;;;;-2.83;100.00;99727.16;4157802;28;20445;-72
2023/02/28 01:38:42;;;;;;;7.00;5.45;;;;;;;-2.82;100.00;99727.97;4157937;28;20179;-72
2023/02/28 01:40:43;;;;;;;7.88;5.13;;;;;;;-2.83;100.00;99718.22;4157724;28;20049;-72
2023/02/28 01:42:43;;;;;;;8.30;5.00;;;;;;;-2.79;100.00;99726.66;4157418;28;20054;-72
2023/02/28 01:45:06;;;;;;;7.18;4.90;;;;;;;-2.79;100.00;99726.66;4157552;28;20129;-72
2023/02/28 01:47:06;;;;;;;8.20;5.43;;;;;;;-2.82;100.00;99717.13;4157398;28;20080;-72
2023/02/28 01:49:16;;;;;;;8.02;4.93;;;;;;;-2.82;100.00;99717.94;4157798;28;20033;-72
2023/02/28 01:51:45;;;;;;;6.95;4.90;;;;;;;-2.82;100.00;99722.53;4157513;28;20504;-72
2023/02/28 01:53:51;;;;;;;7.63;4.75;;;;;;;-2.86;100.00;99722.25;4155926;28;20045;-72
2023/02/28 01:55:53;;;;;;;9.88;5.07;;;;;;;-2.84;100.00;99716.56;4157396;28;20428;-72
2023/02/28 01:57:57;;;;;;;10.52;7.05;;;;;;;-2.84;100.00;99720.09;4157435;28;20118;-72
2023/02/28 02:00:04;;;;;;;9.93;6.47;;;;;;;-2.80;100.00;99711.47;4157721;28;20401;-72
2023/02/28 02:02:04;;;;;;;11.48;6.28;;;;;;;-2.83;100.00;99719.03;4141203;28;20046;-72
2023/02/28 02:04:05;;;;;;;10.85;6.60;;;;;;;-2.85;100.00;99709.53;4140522;28;20022;-72
2023/02/28 02:06:05;;;;;;;9.77;6.20;;;;;;;-2.85;100.00;99710.34;4141004;28;20112;-72
2023/02/28 02:08:27;;;;;;;7.65;5.40;;;;;;;-2.79;100.00;99715.81;4143269;28;20615;-72
2023/02/28 02:10:41;;;;;;;9.18;5.53;;;;;;;-2.79;100.00;99696.84;4157645;28;20045;-72
2023/02/28 02:13:00;;;;;;;9.50;5.60;;;;;;;-2.80;100.00;99703.34;4156830;28;20057;-72
2023/02/28 02:15:14;;;;;;;8.85;5.93;;;;;;;-2.79;100.00;99696.84;4157191;28;20397;-72
2023/02/28 02:17:23;;;;;;;7.63;4.97;;;;;;;-2.83;100.00;99691.13;4157028;28;20049;-72
2023/02/28 02:19:46;;;;;;;10.25;6.13;;;;;;;-2.81;100.00;99697.13;4157590;28;20052;-72
2023/02/28 02:21:49;;;;;;;8.80;6.20;;;;;;;-2.79;100.00;99702.28;4157468;28;20041;-72
2023/02/28 02:23:52;;;;;;;10.43;6.30;;;;;;;-2.78;100.00;99701.19;4156650;28;20061;-72
2023/02/28 02:26:20;;;;;;;8.82;6.32;;;;;;;-2.78;100.00;99701.19;4156662;28;20473;-72
2023/02/28 02:28:30;;;;;;;10.02;5.95;;;;;;;-2.82;100.00;99693.56;4132227;28;20506;-72
2023/02/28 02:30:39;;;;;;;10.48;6.13;;;;;;;-2.79;100.00;99697.66;4160342;28;20491;-72
2023/02/28 02:33:09;;;;;;;9.85;6.53;;;;;;;-2.79;100.00;99692.25;4159883;28;20045;-72
2023/02/28 02:35:31;;;;;;;10.05;5.88;;;;;;;-2.78;100.00;99691.16;4160520;28;20056;-73
2023/02/28 02:37:54;;;;;;;10.30;5.82;;;;;;;-2.79;100.00;99691.44;4159930;28;20390;-73
2023/02/28 02:40:04;;;;;;;;;;;;;;;-2.80;100.00;99689.81;4159852;28;20545;-72
2023/02/28 02:42:15;;;;;;;8.52;4.65;;;;;;;-2.82;100.00;99687.34;4159950;28;19913;-72
2023/02/28 02:44:27;;;;;;;7.63;5.45;;;;;;;-2.85;100.00;99690.56;4158995;28;20044;-72
2023/02/28 02:46:44;;;;;;;8.53;5.60;;;;;;;-2.89;100.00;99687.59;4160985;28;20057;-72
2023/02/28 02:48:45;;;;;;;10.38;4.80;;;;;;;-2.90;100.00;99699.47;4159222;28;20288;-72
2023/02/28 02:50:53;;;;;;;6.75;4.47;;;;;;;-2.89;100.00;99700.31;4159743;28;20107;-72
2023/02/28 02:52:58;;;;;;;8.52;5.13;;;;;;;-2.92;100.00;99690.78;4159761;28;20092;-72
2023/02/28 02:55:01;;;;;;;8.68;4.28;;;;;;;-2.93;100.00;99696.47;4159540;28;20055;-72
2023/02/28 02:57:11;;;;;;;9.98;6.00;;;;;;;-2.95;100.00;99695.94;4160179;28;20056;-72
2023/02/28 02:59:20;;;;;;;7.13;4.47;;;;;;;-2.97;100.00;99698.09;4159726;28;20116;-72
2023/02/28 03:01:27;;;;;;;7.50;5.05;;;;;;;-3.04;100.00;99690.19;4160186;28;20044;-72
2023/02/28 03:03:30;;;;;;;8.68;4.57;;;;;;;-3.03;100.00;99691.00;4159288;28;20044;-72
2023/02/28 03:05:45;;;;;;;7.55;4.78;;;;;;;-3.05;100.00;99688.53;4159791;28;20111;-72
2023/02/28 03:07:46;;;;;;;9.38;4.78;;;;;;;-3.07;100.00;99693.38;4159568;28;20262;-72
2023/02/28 03:09:53;;;;;;;7.00;4.28;;;;;;;-3.06;100.00;99688.78;4160302;28;20380;-72
2023/02/28 03:11:56;;;;;;;7.63;4.80;;;;;;;-3.05;100.00;99691.25;4159648;28;20077;-72
2023/02/28 03:14:15;;;;;;;6.72;4.40;;;;;;;-3.07;100.00;99696.09;4158989;28;20068;-72
2023/02/28 03:16:23;;;;;;;7.60;4.32;;;;;;;-3.08;100.00;99693.66;4159210;28;20156;-72
2023/02/28 03:18:42;;;;;;;9.23;4.50;;;;;;;-3.07;100.00;99693.38;4159670;28;20046;-72
2023/02/28 03:21:36;;;;;;;6.65;4.53;;;;;;;-3.10;100.00;99696.63;4159643;28;20429;-72
2023/02/28 03:23:49;;;;;;;8.00;4.50;;;;;;;-3.10;100.00;99699.31;4157200;28;20034;-72
2023/02/28 03:25:49;;;;;;;12.93;4.43;;;;;;;-3.11;100.00;99703.13;4158876;28;20536;-72
2023/02/28 03:28:02;;;;;;;7.50;4.40;;;;;;;-3.14;100.00;99703.63;4159024;28;20053;-72
2023/02/28 03:30:14;;;;;;;8.15;4.85;;;;;;;-3.13;100.00;99697.16;4158874;28;20046;-72
2023/02/28 03:32:24;;;;;;;7.10;4.82;;;;;;;-3.18;100.00;99695.19;4159706;28;20033;-72
2023/02/28 03:34:52;;;;;;;6.75;4.72;;;;;;;-3.21;100.00;99690.31;4158841;28;20091;-72
2023/02/28 03:36:59;;;;;;;7.25;5.00;;;;;;;-3.19;100.00;99703.59;4159596;28;20440;-72
2023/02/28 03:39:06;;;;;;;7.75;4.97;;;;;;;-3.21;100.00;99689.50;4159139;28;20132;-72
2023/02/28 03:41:29;;;;;;;6.90;4.88;;;;;;;-3.22;100.00;99702.22;4159340;28;20262;-72
2023/02/28 03:43:31;;;;;;;;;;;;;;;-3.19;100.00;99703.59;4137684;28;20053;-72
2023/02/28 03:45:36;;;;;;;9.10;5.22;;;;;;;-3.20;100.00;99696.53;4158717;28;20010;-72
2023/02/28 03:47:58;;;;;;;8.65;5.45;;;;;;;-3.22;100.00;99698.69;4158801;28;20211;-72
2023/02/28 03:50:01;;;;;;;8.25;4.68;;;;;;;-3.21;100.00;99695.72;4159116;28;20449;-72
2023/02/28 03:52:05;;;;;;;6.85;4.68;;;;;;;-3.25;100.00;99700.00;4159173;28;20144;-72
2023/02/28 03:54:16;;;;;;;6.72;4.38;;;;;;;-3.26;100.00;99701.09;4158811;28;20033;-72
2023/02/28 03:56:22;;;;;;;8.80;4.45;;;;;;;-3.25;100.00;99693.78;4158306;28;20040;-72
2023/02/28 03:58:43;;;;;;;7.80;4.45;;;;;;;-3.25;100.00;99696.50;4158908;28;20327;-72
2023/02/28 04:00:49;;;;;;;10.48;4.68;;;;;;;-3.23;100.00;99695.16;4159060;28;20044;-72
2023/02/28 04:02:52;;;;;;;8.60;4.88;;;;;;;-3.21;100.00;99700.31;4158337;28;20045;-72
2023/02/28 04:04:52;;;;;;;6.22;4.82;;;;;;;-3.23;100.00;99692.44;4158732;28;20053;-72
2023/02/28 04:07:02;;;;;;;8.02;4.32;;;;;;;-3.20;100.00;99704.66;4158630;28;20041;-73
2023/02/28 04:09:05;;;;;;;9.18;4.65;;;;;;;-3.20;100.00;99705.47;4158723;28;20034;-72
2023/02/28 04:11:14;;;;;;;8.65;5.18;;;;;;;-3.16;100.00;99713.88;4158486;28;20034;-72
2023/02/28 04:13:14;;;;;;;8.30;4.90;;;;;;;-3.15;100.00;99713.63;4157829;28;20038;-72
2023/02/28 04:15:15;;;;;;;10.38;5.35;;;;;;;-3.15;100.00;99702.78;4159412;28;20436;-72
2023/02/28 04:17:16;;;;;;;8.80;5.10;;;;;;;-3.13;100.00;99714.22;4158623;28;20049;-72
2023/02/28 04:19:17;;;;;;;10.73;5.75;;;;;;;-3.15;100.00;99720.94;4158673;28;20050;-72
2023/02/28 04:21:20;;;;;;;7.32;4.43;;;;;;;-3.09;100.00;99708.25;4158630;28;20033;-72
2023/02/28 04:23:20;;;;;;;9.25;5.35;;;;;;;-3.10;100.00;99707.44;4158065;28;20099;-72
2023/02/28 04:25:21;;;;;;;8.98;4.90;;;;;;;-3.09;100.00;99702.84;4158101;28;20445;-72
2023/02/28 04:27:21;;;;;;;10.77;5.40;;;;;;;-3.09;100.00;99711.78;4159016;28;20940;-72
2023/02/28 04:29:31;;;;;;;10.88;5.90;;;;;;;-3.09;100.00;99711.78;4158821;28;20138;-72
2023/02/28 04:31:32;;;;;;;12.52;6.00;;;;;;;-3.08;100.00;99704.47;4158783;28;20398;-72
2023/02/28 04:33:33;;;;;;;10.55;5.60;;;;;;;-3.05;100.00;99704.78;4157877;28;20053;-72
2023/02/28 04:35:33;;;;;;;10.65;5.88;;;;;;;-3.06;100.00;99710.44;4158220;28;20393;-72
2023/02/28 04:37:34;;;;;;;10.95;5.82;;;;;;;-3.07;100.00;99716.94;4158449;28;20041;-72
2023/02/28 04:39:36;;;;;;;11.57;5.40;;;;;;;-3.08;100.00;99713.41;4158194;28;20046;-72
2023/02/28 04:41:37;;;;;;;9.73;5.05;;;;;;;-3.11;100.00;99705.81;4158504;28;20083;-72
2023/02/28 04:43:37;;;;;;;8.80;4.55;;;;;;;-3.09;100.00;99706.38;4157495;28;20132;-72
2023/02/28 04:45:37;;;;;;;7.85;4.85;;;;;;;-3.05;100.00;99723.75;4157725;28;20175;-72
2023/02/28 04:47:38;;;;;;;8.20;5.38;;;;;;;-3.06;100.00;99711.28;4158337;28;20053;-72
2023/02/28 04:49:38;;;;;;;7.43;4.95;;;;;;;-3.01;100.00;99716.72;4158152;28;20065;-72
2023/02/28 04:51:39;;;;;;;8.25;4.88;;;;;;;-3.01;100.00;99714.00;4157793;28;20077;-72
2023/02/28 04:53:41;;;;;;;9.30;5.82;;;;;;;-3.01;100.00;99710.50;4157604;28;20049;-72
2023/02/28 04:55:41;;;;;;;9.80;5.37;;;;;;;-3.01;100.00;99718.63;4157850;28;20129;-72
2023/02/28 04:57:42;;;;;;;9.40;5.40;;;;;;;-3.04;100.00;99716.44;4158141;28;20077;-72
2023/02/28 04:59:42;;;;;;;9.80;4.93;;;;;;;-3.03;100.00;99710.75;4157890;28;20045;-72
2023/02/28 05:01:47;;;;;;;6.95;4.78;;;;;;;-3.02;100.00;99712.38;4158593;28;20052;-72
2023/02/28 05:03:48;;;;;;;7.90;4.68;;;;;;;-3.03;100.00;99721.59;4157364;28;20041;-72
2023/02/28 05:05:48;;;;;;;8.43;5.28;;;;;;;-3.05;100.00;99714.81;4157591;28;20220;-72
2023/02/28 05:07:49;;;;;;;10.80;5.53;;;;;;;-3.05;100.00;99726.44;4157577;28;20037;-72
2023/02/28 05:09:49;;;;;;;7.82;5.07;;;;;;;-3.06;100.00;99716.69;4158189;28;20120;-72
2023/02/28 05:11:49;;;;;;;9.82;5.07;;;;;;;-3.06;100.00;99718.56;4157826;28;20041;-72
2023/02/28 05:13:50;;;;;;;9.07;5.38;;;;;;;-3.09;100.00;99719.91;4156861;28;20049;-72
2023/02/28 05:15:50;;;;;;;9.65;5.18;;;;;;;-3.02;100.00;99730.53;4157964;28;20441;-72
2023/02/28 05:17:51;;;;;;;10.23;5.32;;;;;;;-3.07;100.00;99720.47;4157631;28;20102;-72
2023/02/28 05:19:51;;;;;;;9.27;5.82;;;;;;;-3.06;100.00;99726.69;4158090;28;20090;-72
2023/02/28 05:21:55;;;;;;;8.73;5.13;;;;;;;-3.11;100.00;99725.59;4157980;28;20131;-72
2023/02/28 05:23:57;;;;;;;10.70;5.43;;;;;;;-3.12;100.00;99728.56;4157138;28;20042;-72
2023/02/28 05:25:58;;;;;;;7.63;5.15;;;;;;;-3.13;100.00;99733.16;4157342;28;20128;-72
2023/02/28 05:27:58;;;;;;;11.07;6.40;;;;;;;-3.15;100.00;99731.75;4157709;28;20713;-73
2023/02/28 05:29:59;;;;;;;10.32;6.03;;;;;;;-3.19;100.00;99725.25;4157105;28;20386;-72
2023/02/28 05:31:59;;;;;;;8.88;5.90;;;;;;;-3.22;100.00;99726.59;4157913;28;20056;-72
2023/02/28 05:34:00;;;;;;;10.85;5.50;;;;;;;-3.21;100.00;99738.22;4157379;28;20412;-72
2023/02/28 05:36:00;;;;;;;11.13;5.97;;;;;;;-3.16;100.00;99739.06;4157469;28;20060;-72
2023/02/28 05:38:00;;;;;;;7.63;4.78;;;;;;;-3.16;100.00;99732.84;4157386;28;20568;-72
2023/02/28 05:40:02;;;;;;;8.07;5.30;;;;;;;-3.16;100.00;99740.97;4157495;28;20033;-72
2023/02/28 05:42:02;;;;;;;11.85;6.13;;;;;;;-3.16;100.00;99744.47;4157226;28;20069;-72
2023/02/28 05:44:03;;;;;;;11.02;5.80;;;;;;;-3.20;100.00;99742.56;4157375;28;20712;-72
2023/02/28 05:46:08;;;;;;;11.25;5.97;;;;;;;-3.15;100.00;99745.28;4157561;28;20044;-73
2023/02/28 05:48:08;;;;;;;10.18;5.88;;;;;;;-3.20;100.00;99740.66;4156947;28;20108;-72
2023/02/28 05:50:10;;;;;;;10.57;5.55;;;;;;;-3.23;100.00;99743.88;4157035;28;20084;-72
2023/02/28 05:52:10;;;;;;;12.23;5.32;;;;;;;-3.25;100.00;99745.22;4157476;28;20029;-72
2023/02/28 05:54:11;;;;;;;11.23;5.30;;;;;;;-3.25;100.00;99740.59;4157297;28;20029;-72
2023/02/28 05:56:11;;;;;;;9.35;5.38;;;;;;;-3.24;100.00;99744.13;4157616;28;20037;-72
2023/02/28 05:58:11;;;;;;;9.55;4.60;;;;;;;-3.26;100.00;99740.88;4157241;28;20095;-72
2023/02/28 06:00:14;;;;;;;9.68;6.00;;;;;;;-3.28;100.00;99743.84;4157860;28;20035;-72
2023/02/28 06:02:16;;;;;;;8.60;5.03;;;;;;;-3.32;100.00;99740.00;4157934;28;20374;-72
2023/02/28 06:04:18;;;;;;;10.05;6.22;;;;;;;-3.35;100.00;99743.22;4159655;28;20452;-72
2023/02/28 06:06:19;;;;;;;8.23;5.18;;;;;;;-3.35;100.00;99740.53;4103060;28;20549;-73
2023/02/28 06:08:19;;;;;;;9.20;5.13;;;;;;;-3.35;100.00;99747.81;4159715;28;20155;-72
2023/02/28 06:10:20;;;;;;;9.48;4.63;;;;;;;-3.43;100.00;99741.78;4160112;28;20068;-72
2023/02/28 06:12:20;;;;;;;8.75;5.38;;;;;;;-3.44;100.00;99752.88;4160697;28;20021;-72
2023/02/28 06:14:20;;;;;;;8.73;5.53;;;;;;;-3.50;100.00;99743.88;4159789;28;20056;-73
2023/02/28 06:16:21;;;;;;;10.15;5.68;;;;;;;-3.51;100.00;99746.84;4159716;28;20069;-72
2023/02/28 06:18:22;;;;;;;9.85;5.75;;;;;;;-3.54;100.00;99755.50;4160585;28;20142;-72
2023/02/28 06:20:23;;;;;;;12.25;5.63;;;;;;;-3.52;100.00;99754.16;4159857;28;20187;-72
2023/02/28 06:22:24;;;;;;;8.57;5.30;;;;;;;-3.56;100.00;99752.19;4160136;28;20935;-72
2023/02/28 06:24:27;;;;;;;7.63;4.93;;;;;;;-3.58;100.00;99766.00;4159758;28;20069;-72
2023/02/28 06:26:28;;;;;;;6.93;5.03;;;;;;;-3.61;100.00;99760.28;4160286;28;20044;-72
2023/02/28 06:28:28;;;;;;;10.23;5.78;;;;;;;-3.64;100.00;99758.91;4160076;28;20045;-72
2023/02/28 06:30:29;;;;;;;7.30;4.78;;;;;;;-3.70;100.00;99752.63;4159609;28;20046;-72
2023/02/28 06:32:30;;;;;;;9.77;5.40;;;;;;;-3.64;100.00;99766.19;4157806;28;20048;-72
2023/02/28 06:34:30;;;;;;;8.65;4.82;;;;;;;-3.68;100.00;99765.88;4159663;28;20037;-72
2023/02/28 06:36:31;;;;;;;7.93;5.07;;;;;;;-3.71;100.00;99767.22;4159355;28;20057;-72
2023/02/28 06:38:32;;;;;;;10.32;5.50;;;;;;;-3.75;100.00;99778.78;4158516;28;20453;-72
2023/02/28 06:40:34;;;;;;;12.27;5.95;;;;;;;-3.78;100.00;99776.59;4158795;28;20493;-72
2023/02/28 06:42:35;;;;;;;;;;;;;;;-3.80;100.00;99784.16;4158842;28;20369;-73
2023/02/28 06:44:35;;;;;;;11.48;4.97;;;;;;;-3.81;100.00;99785.19;4159173;28;20016;-72
2023/02/28 06:46:36;;;;;;;6.93;4.75;;;;;;;-3.81;100.00;99786.00;4158861;28;20048;-72
2023/02/28 06:48:36;;;;;;;6.68;4.53;;;;;;;-3.75;100.00;99789.59;4159052;28;20049;-72
2023/02/28 06:50:37;;;;;;;9.43;5.30;;;;;;;-3.76;100.00;99790.66;4158873;28;20053;-72
2023/02/28 06:52:38;;;;;;;9.73;4.85;;;;;;;-3.76;100.00;99793.38;4159208;28;20052;-72
2023/02/28 06:54:38;;;;;;;9.90;5.20;;;;;;;-3.73;100.00;99785.56;4160199;28;20060;-73
2023/02/28 06:56:39;;;;;;;6.97;4.45;;;;;;;-3.70;100.00;99795.06;4159896;28;20529;-72
2023/02/28 06:58:40;;;;;;;7.45;4.50;;;;;;;-3.65;100.00;99799.72;4160341;28;20401;-72
2023/02/28 07:00:42;;;;;;;8.40;5.22;;;;;;;-3.62;100.00;99799.22;4159433;28;20421;-72
2023/02/28 07:02:42;;;;;;;7.60;4.28;;;;;;;-3.58;100.00;99798.44;4159209;28;20454;-72
2023/02/28 07:04:44;;;;;;;9.07;5.20;;;;;;;-3.57;100.00;99801.97;4159753;28;20139;-72
2023/02/28 07:06:44;;;;;;;9.65;5.15;;;;;;;-3.55;100.00;99808.78;4159724;28;20045;-72
2023/02/28 07:08:45;;;;;;;9.25;5.15;;;;;;;-3.54;100.00;99807.72;4160038;28;20146;-72
2023/02/28 07:10:45;;;;;;;9.57;5.05;;;;;;;-3.53;100.00;99803.94;4159720;28;20118;-73
2023/02/28 07:12:46;;;;;;;7.93;4.75;;;;;;;-3.47;100.00;99808.34;4159118;28;20041;-73
2023/02/28 07:14:46;;;;;;;7.70;5.10;;;;;;;-3.41;100.00;99814.59;4158851;28;20111;-72
2023/02/28 07:16:46;;;;;;;11.68;7.25;;;;;;;-3.36;100.00;99813.84;4159623;28;20076;-72
2023/02/28 07:18:47;;;;;;;10.38;6.13;;;;;;;-3.36;100.00;99811.97;4159776;28;20076;-72
2023/02/28 07:20:47;;;;;;;14.30;7.10;;;;;;;-3.33;100.00;99803.31;4159042;28;20080;-72
2023/02/28 07:22:54;;;;;;;16.63;8.38;;;;;;;-3.32;100.00;99809.56;4158950;28;20044;-72
2023/02/28 07:24:55;;;;;;;22.63;10.18;;;;;;;-3.28;100.00;99814.22;4158881;28;20049;-72
2023/02/28 07:26:56;;;;;;;12.20;7.90;;;;;;;-3.22;100.00;99815.91;4160064;28;20060;-72
2023/02/28 07:28:56;;;;;;;11.75;6.80;;;;;;;-3.18;100.00;99821.63;4159620;28;20029;-72
2023/02/28 07:30:56;;;;;;;19.45;9.52;;;;;;;-3.10;100.00;99813.03;4191037;28;20056;-72
2023/02/28 07:32:57;;;;;;;19.05;9.35;;;;;;;-3.08;100.00;99804.66;4158641;28;20124;-72
2023/02/28 07:34:57;;;;;;;15.55;8.18;;;;;;;-3.04;100.00;99805.78;4159407;28;20064;-72
2023/02/28 07:36:57;;;;;;;15.75;9.63;;;;;;;-3.03;100.00;99807.41;4159271;28;20042;-72
2023/02/28 07:38:58;;;;;;;10.93;6.88;;;;;;;-2.97;100.00;99809.13;4159419;28;20130;-72
2023/02/28 07:40:59;;;;;;;9.00;6.03;;;;;;;-2.94;100.00;99801.28;4159658;28;20222;-72
2023/02/28 07:43:03;;;;;;;9.48;5.57;;;;;;;-2.88;100.00;99802.16;4158677;28;20036;-72
2023/02/28 07:45:04;;;;;;;9.73;5.10;;;;;;;-2.83;100.00;99799.47;4158905;28;20351;-72
2023/02/28 07:47:05;;;;;;;15.75;8.70;;;;;;;-2.78;100.00;99802.22;4159408;28;20042;-72
2023/02/28 07:49:05;;;;;;;10.85;6.03;;;;;;;-2.74;100.00;99805.22;4159003;28;20045;-72
2023/02/28 07:51:06;;;;;;;11.00;6.55;;;;;;;-2.74;100.00;99805.22;4159310;28;20228;-72
2023/02/28 07:53:06;;;;;;;10.07;5.15;;;;;;;-2.67;100.00;99808.53;4158448;28;20075;-72
2023/02/28 07:55:09;;;;;;;20.60;10.77;;;;;;;-2.61;100.00;99804.81;4159274;28;20187;-72
2023/02/28 07:57:09;;;;;;;;;;;;;;;-2.58;100.00;99810.50;4159379;28;20050;-72
2023/02/28 07:59:09;;;;;;;13.05;7.03;;;;;;;-2.55;100.00;99799.16;4159173;28;20261;-72
2023/02/28 08:01:11;;;;;;;14.50;7.15;;;;;;;-2.47;100.00;99800.56;4159081;28;20033;-73
2023/02/28 08:03:12;;;;;;;7.65;4.60;;;;;;;-2.38;100.00;99809.84;4158141;28;20042;-72
2023/02/28 08:05:13;;;;;;;7.63;4.82;;;;;;;-2.34;100.00;99808.25;4159268;28;20053;-72
2023/02/28 08:07:14;;;;;;;10.45;5.63;;;;;;;-2.30;100.00;99805.84;4158845;28;20046;-72
2023/02/28 08:09:14;;;;;;;11.55;6.45;;;;;;;-2.26;100.00;99810.47;4158835;28;20096;-72
2023/02/28 08:11:16;;;;;;;9.00;4.60;;;;;;;-2.19;100.00;99799.41;4159244;28;20045;-72
2023/02/28 08:13:16;;;;;;;6.88;4.50;;;;;;;-2.10;100.00;99813.28;4157778;28;20041;-72
2023/02/28 08:15:16;;;;;;;9.38;6.25;;;;;;;-2.08;100.00;99802.97;4158769;28;20080;-72
2023/02/28 08:17:17;;;;;;;9.77;5.30;;;;;;;-2.05;100.00;99807.88;4158557;28;20061;-72
2023/02/28 08:19:17;;;;;;;9.95;5.80;;;;;;;-2.06;100.00;99796.22;4158847;28;20057;-73
2023/02/28 08:21:19;;;;;;;8.20;5.20;;;;;;;-2.03;100.00;99790.28;4158456;28;20116;-72
2023/02/28 08:23:19;;;;;;;8.13;5.30;;;;;;;-1.96;100.00;99800.06;4157777;28;20107;-72
2023/02/28 08:25:20;;;;;;;10.20;5.50;;;;;;;-1.94;100.00;99804.13;4158376;28;20050;-72
2023/02/28 08:27:21;;;;;;;9.60;5.00;;;;;;;-1.90;100.00;99813.41;4157870;28;20033;-72
2023/02/28 08:29:21;;;;;;;8.93;4.97;;;;;;;-1.83;100.00;99800.38;4158938;28;20041;-72
2023/02/28 08:31:22;;;;;;;6.95;4.53;;;;;;;-1.79;98.44;99792.56;4158555;28;20110;-72
2023/02/28 08:33:24;;;;;;;7.57;4.82;;;;;;;-1.72;98.82;99809.41;4157584;28;20099;-72
2023/02/28 08:35:24;;;;;;;10.25;5.15;;;;;;;-1.68;98.65;99812.41;4158381;28;20050;-72
2023/02/28 08:37:25;;;;;;;7.90;5.60;;;;;;;-1.64;98.83;99802.66;4158579;28;20121;-72
2023/02/28 08:39:26;;;;;;;7.40;4.82;;;;;;;-1.57;97.73;99805.91;4158558;28;20041;-72
2023/02/28 08:41:26;;;;;;;7.97;5.15;;;;;;;-1.58;98.17;99804.28;4158443;28;20049;-72
2023/02/28 08:43:27;;;;;;;7.50;5.38;;;;;;;-1.59;97.50;99808.09;4157454;28;20049;-72
2023/02/28 08:45:28;;;;;;;8.35;6.03;;;;;;;-1.57;97.60;99808.63;4158528;28;20049;-72
2023/02/28 08:47:28;;;;;;;9.48;5.45;;;;;;;-1.56;96.30;99804.88;4158032;28;20041;-72
2023/02/28 08:49:28;;;;;;;10.82;6.03;;;;;;;-1.48;96.14;99805.16;4158145;28;20200;-72
2023/02/28 08:51:29;;;;;;;10.05;5.72;;;;;;;-1.43;96.83;99817.91;4158056;28;20034;-72
2023/02/28 08:53:30;;;;;;;11.95;5.63;;;;;;;-1.38;95.41;99815.22;4157928;28;20054;-72
2023/02/28 08:55:30;;;;;;;8.73;5.47;;;;;;;-1.38;94.29;99815.22;4158340;28;20103;-72
2023/02/28 08:57:31;;;;;;;9.25;5.10;;;;;;;-1.38;93.73;99814.41;4158183;28;20497;-72
2023/02/28 08:59:32;;;;;;;9.00;5.75;;;;;;;-1.38;93.93;99823.38;4158488;28;20124;-72
2023/02/28 09:01:32;;;;;;;8.30;5.60;;;;;;;-1.34;92.74;99812.78;4157714;28;20474;-73
2023/02/28 09:03:33;;;;;;;7.18;5.43;;;;;;;-1.30;94.40;99814.72;4156982;28;20049;-72
2023/02/28 09:05:33;;;;;;;10.93;6.18;;;;;;;-1.24;92.79;99815.53;4158307;28;20041;-72
2023/02/28 09:07:33;;;;;;;12.25;6.00;;;;;;;-1.20;92.38;99814.72;4157920;28;20609;-72
2023/02/28 09:09:34;;;;;;;9.23;5.30;;;;;;;-1.13;92.11;99820.72;4158181;28;20084;-72
2023/02/28 09:11:35;;;;;;;12.43;5.38;;;;;;;-1.08;90.78;99819.91;4157976;28;20481;-72
2023/02/28 09:13:35;;;;;;;8.68;4.68;;;;;;;-1.10;89.05;99819.38;4157581;28;20041;-72
2023/02/28 09:15:37;;;;;;;10.55;4.78;;;;;;;-1.10;88.46;99818.56;4157408;28;20091;-72
2023/02/28 09:17:38;;;;;;;8.10;5.20;;;;;;;-1.11;87.69;99816.91;4157697;28;20436;-72
2023/02/28 09:19:38;;;;;;;8.15;5.20;;;;;;;-1.05;89.31;99815.84;4158389;28;20041;-72
2023/02/28 09:21:38;;;;;;;10.13;5.30;;;;;;;-1.01;87.34;99809.59;4157692;28;20041;-72
2023/02/28 09:23:39;;;;;;;8.75;5.30;;;;;;;-0.99;87.77;99814.78;4157258;28;20037;-72
2023/02/28 09:25:47;;;;;;;9.63;5.50;;;;;;;-0.88;85.89;99813.72;4157539;28;20505;-72
2023/02/28 09:27:48;;;;;;;8.38;4.72;;;;;;;-0.91;86.29;99812.34;4157524;28;20548;-73
2023/02/28 09:29:48;;;;;;;7.95;5.93;;;;;;;-0.88;87.81;99811.00;4158073;28;20069;-72
2023/02/28 09:31:49;;;;;;;9.63;5.95;;;;;;;-0.78;89.25;99811.00;4157357;28;20055;-73
2023/02/28 09:33:52;;;;;;;10.63;5.40;;;;;;;-0.68;85.82;99812.88;4157028;28;20503;-72